sensor_id;sensor_type;location;lat;lon;timestamp;temperature;humidity
14210;DHT22;7188;56.070;12.698;2023-10-19T00:00:51;5.50;99.90
14210;DHT22;7188;56.070;12.698;2023-10-19T00:03:20;5.40;99.90
14210;DHT22;7188;56.070;12.698;2023-10-19T00:05:46;5.40;99.90
14210;DHT22;7188;56.070;12.698;2023-10-19T00:08:14;5.40;99.90
14210;DHT22;7188;56.070;12.698;2023-10-19T00:10:54;5.40;99.90
14210;DHT22;7188;56.070;12.698;2023-10-19T00:13:36;5.40;99.90
14210;DHT22;7188;56.070;12.698;2023-10-19T00:16:03;5.40;99.90
14210;DHT22;7188;56.070;12.698;2023-10-19T00:18:37;5.40;99.90
14210;DHT22;7188;56.070;12.698;2023-10-19T00:21:08;5.40;99.90
14210;DHT22;7188;56.070;12.698;2023-10-19T00:23:55;5.40;99.90
14210;DHT22;7188;56.070;12.698;2023-10-19T00:26:23;5.40;99.90
14210;DHT22;7188;56.070;12.698;2023-10-19T00:28:51;5.40;99.90
14210;DHT22;7188;56.070;12.698;2023-10-19T00:31:19;5.40;99.90
14210;DHT22;7188;56.070;12.698;2023-10-19T00:33:50;5.40;99.90
14210;DHT22;7188;56.070;12.698;2023-10-19T00:36:20;5.40;99.90
14210;DHT22;7188;56.070;12.698;2023-10-19T00:38:46;5.30;99.90
14210;DHT22;7188;56.070;12.698;2023-10-19T00:41:16;5.30;99.90
14210;DHT22;7188;56.070;12.698;2023-10-19T00:43:56;5.30;99.90
14210;DHT22;7188;56.070;12.698;2023-10-19T00:46:38;5.30;99.90
14210;DHT22;7188;56.070;12.698;2023-10-19T00:49:04;5.20;99.90
14210;DHT22;7188;56.070;12.698;2023-10-19T00:51:52;5.20;99.90
14210;DHT22;7188;56.070;12.698;2023-10-19T00:54:31;5.20;99.90
14210;DHT22;7188;56.070;12.698;2023-10-19T00:57:12;5.20;99.90
14210;DHT22;7188;56.070;12.698;2023-10-19T00:59:39;5.20;99.90
14210;DHT22;7188;56.070;12.698;2023-10-19T01:02:09;5.20;99.90
14210;DHT22;7188;56.070;12.698;2023-10-19T01:04:44;5.10;99.90
14210;DHT22;7188;56.070;12.698;2023-10-19T01:07:12;5.10;99.90
14210;DHT22;7188;56.070;12.698;2023-10-19T01:09:45;5.10;24.40
14210;DHT22;7188;56.070;12.698;2023-10-19T01:12:11;5.10;1.00
14210;DHT22;7188;56.070;12.698;2023-10-19T01:17:49;5.00;1.00
14210;DHT22;7188;56.070;12.698;2023-10-19T01:20:24;5.10;1.00
14210;DHT22;7188;56.070;12.698;2023-10-19T01:23:00;5.00;1.00
14210;DHT22;7188;56.070;12.698;2023-10-19T01:28:20;5.10;1.00
14210;DHT22;7188;56.070;12.698;2023-10-19T01:30:47;5.10;1.00
14210;DHT22;7188;56.070;12.698;2023-10-19T01:33:17;5.10;1.00
14210;DHT22;7188;56.070;12.698;2023-10-19T01:35:44;5.00;1.00
14210;DHT22;7188;56.070;12.698;2023-10-19T01:38:32;5.00;99.90
14210;DHT22;7188;56.070;12.698;2023-10-19T01:41:02;5.00;99.90
14210;DHT22;7188;56.070;12.698;2023-10-19T01:43:31;5.00;99.90
14210;DHT22;7188;56.070;12.698;2023-10-19T01:45:57;5.00;99.90
14210;DHT22;7188;56.070;12.698;2023-10-19T01:48:24;5.00;99.90
14210;DHT22;7188;56.070;12.698;2023-10-19T01:51:03;5.00;1.00
14210;DHT22;7188;56.070;12.698;2023-10-19T01:53:33;5.00;1.00
14210;DHT22;7188;56.070;12.698;2023-10-19T01:55:59;5.00;1.00
14210;DHT22;7188;56.070;12.698;2023-10-19T01:58:25;5.00;99.90
14210;DHT22;7188;56.070;12.698;2023-10-19T02:00:54;5.00;99.90
14210;DHT22;7188;56.070;12.698;2023-10-19T02:03:43;4.90;1.00
14210;DHT22;7188;56.070;12.698;2023-10-19T02:06:10;4.90;1.00
14210;DHT22;7188;56.070;12.698;2023-10-19T02:08:55;4.90;1.00
14210;DHT22;7188;56.070;12.698;2023-10-19T02:11:25;4.90;99.90
14210;DHT22;7188;56.070;12.698;2023-10-19T02:13:53;4.80;99.90
14210;DHT22;7188;56.070;12.698;2023-10-19T02:16:20;4.80;1.00
14210;DHT22;7188;56.070;12.698;2023-10-19T02:18:49;4.90;1.00
14210;DHT22;7188;56.070;12.698;2023-10-19T02:21:16;4.90;1.00
14210;DHT22;7188;56.070;12.698;2023-10-19T02:23:50;4.90;1.00
14210;DHT22;7188;56.070;12.698;2023-10-19T02:26:20;4.80;99.90
14210;DHT22;7188;56.070;12.698;2023-10-19T02:28:48;4.80;99.90
14210;DHT22;7188;56.070;12.698;2023-10-19T02:31:17;4.80;99.90
14210;DHT22;7188;56.070;12.698;2023-10-19T02:33:54;4.80;99.90
14210;DHT22;7188;56.070;12.698;2023-10-19T02:36:30;4.80;99.90
14210;DHT22;7188;56.070;12.698;2023-10-19T02:39:01;4.70;99.90
14210;DHT22;7188;56.070;12.698;2023-10-19T02:41:37;4.70;99.90
14210;DHT22;7188;56.070;12.698;2023-10-19T02:44:07;4.70;99.90
14210;DHT22;7188;56.070;12.698;2023-10-19T02:46:37;4.70;99.90
14210;DHT22;7188;56.070;12.698;2023-10-19T02:49:05;4.70;99.90
14210;DHT22;7188;56.070;12.698;2023-10-19T02:51:37;4.70;4.50
14210;DHT22;7188;56.070;12.698;2023-10-19T02:54:03;4.70;1.00
14210;DHT22;7188;56.070;12.698;2023-10-19T02:56:28;4.60;1.00
14210;DHT22;7188;56.070;12.698;2023-10-19T02:58:57;4.60;1.00
14210;DHT22;7188;56.070;12.698;2023-10-19T03:01:33;4.60;1.00
14210;DHT22;7188;56.070;12.698;2023-10-19T03:04:00;4.60;1.00
14210;DHT22;7188;56.070;12.698;2023-10-19T03:06:30;4.60;1.00
14210;DHT22;7188;56.070;12.698;2023-10-19T03:09:00;4.60;99.90
14210;DHT22;7188;56.070;12.698;2023-10-19T03:11:47;4.60;99.90
14210;DHT22;7188;56.070;12.698;2023-10-19T03:14:18;4.60;99.90
14210;DHT22;7188;56.070;12.698;2023-10-19T03:16:43;4.60;99.90
14210;DHT22;7188;56.070;12.698;2023-10-19T03:19:11;4.50;99.90
14210;DHT22;7188;56.070;12.698;2023-10-19T03:21:38;4.60;70.80
14210;DHT22;7188;56.070;12.698;2023-10-19T03:24:09;4.60;51.50
14210;DHT22;7188;56.070;12.698;2023-10-19T03:26:38;4.50;66.60
14210;DHT22;7188;56.070;12.698;2023-10-19T03:29:09;4.60;38.00
14210;DHT22;7188;56.070;12.698;2023-10-19T03:31:41;4.50;37.30
14210;DHT22;7188;56.070;12.698;2023-10-19T03:34:11;4.60;30.50
14210;DHT22;7188;56.070;12.698;2023-10-19T03:36:38;4.60;56.90
14210;DHT22;7188;56.070;12.698;2023-10-19T03:39:04;4.50;24.10
14210;DHT22;7188;56.070;12.698;2023-10-19T03:41:44;4.50;29.10
14210;DHT22;7188;56.070;12.698;2023-10-19T03:44:11;4.50;49.50
14210;DHT22;7188;56.070;12.698;2023-10-19T03:46:44;4.50;44.40
14210;DHT22;7188;56.070;12.698;2023-10-19T03:49:22;4.50;1.00
14210;DHT22;7188;56.070;12.698;2023-10-19T03:51:48;4.50;57.20
14210;DHT22;7188;56.070;12.698;2023-10-19T03:54:33;4.50;36.40
14210;DHT22;7188;56.070;12.698;2023-10-19T03:56:58;4.50;56.20
14210;DHT22;7188;56.070;12.698;2023-10-19T03:59:28;4.50;1.00
14210;DHT22;7188;56.070;12.698;2023-10-19T04:02:00;4.50;1.00
14210;DHT22;7188;56.070;12.698;2023-10-19T04:04:32;4.50;55.60
14210;DHT22;7188;56.070;12.698;2023-10-19T04:06:59;4.50;24.40
14210;DHT22;7188;56.070;12.698;2023-10-19T04:09:24;4.50;99.90
14210;DHT22;7188;56.070;12.698;2023-10-19T04:11:57;4.60;99.90
14210;DHT22;7188;56.070;12.698;2023-10-19T04:14:23;4.60;99.90
14210;DHT22;7188;56.070;12.698;2023-10-19T04:16:49;4.50;99.90
14210;DHT22;7188;56.070;12.698;2023-10-19T04:19:15;4.50;99.90
14210;DHT22;7188;56.070;12.698;2023-10-19T04:21:42;4.50;99.90
14210;DHT22;7188;56.070;12.698;2023-10-19T04:24:12;4.60;99.90
14210;DHT22;7188;56.070;12.698;2023-10-19T04:26:39;4.60;99.90
14210;DHT22;7188;56.070;12.698;2023-10-19T04:29:06;4.60;99.90
14210;DHT22;7188;56.070;12.698;2023-10-19T04:31:42;4.60;99.90
14210;DHT22;7188;56.070;12.698;2023-10-19T04:34:16;4.60;99.90
14210;DHT22;7188;56.070;12.698;2023-10-19T04:36:45;4.60;99.90
14210;DHT22;7188;56.070;12.698;2023-10-19T04:39:12;4.60;1.00
14210;DHT22;7188;56.070;12.698;2023-10-19T04:41:40;4.60;1.00
14210;DHT22;7188;56.070;12.698;2023-10-19T04:44:06;4.60;1.00
14210;DHT22;7188;56.070;12.698;2023-10-19T04:46:34;4.60;1.00
14210;DHT22;7188;56.070;12.698;2023-10-19T04:49:00;4.60;1.00
14210;DHT22;7188;56.070;12.698;2023-10-19T04:51:26;4.60;1.00
14210;DHT22;7188;56.070;12.698;2023-10-19T04:53:52;4.60;1.00
14210;DHT22;7188;56.070;12.698;2023-10-19T04:56:18;4.60;1.00
14210;DHT22;7188;56.070;12.698;2023-10-19T04:59:02;4.60;1.00
14210;DHT22;7188;56.070;12.698;2023-10-19T05:01:28;4.60;16.50
14210;DHT22;7188;56.070;12.698;2023-10-19T05:03:54;4.60;99.90
14210;DHT22;7188;56.070;12.698;2023-10-19T05:06:19;4.50;99.90
14210;DHT22;7188;56.070;12.698;2023-10-19T05:09:06;4.50;99.90
14210;DHT22;7188;56.070;12.698;2023-10-19T05:11:31;4.50;99.90
14210;DHT22;7188;56.070;12.698;2023-10-19T05:13:57;4.50;99.90
14210;DHT22;7188;56.070;12.698;2023-10-19T05:16:22;4.50;1.00
14210;DHT22;7188;56.070;12.698;2023-10-19T05:18:48;4.50;1.00
14210;DHT22;7188;56.070;12.698;2023-10-19T05:21:14;4.50;1.00
14210;DHT22;7188;56.070;12.698;2023-10-19T05:23:39;4.50;1.00
14210;DHT22;7188;56.070;12.698;2023-10-19T05:26:05;4.50;1.00
14210;DHT22;7188;56.070;12.698;2023-10-19T05:28:32;4.50;1.00
14210;DHT22;7188;56.070;12.698;2023-10-19T05:30:58;4.50;1.00
14210;DHT22;7188;56.070;12.698;2023-10-19T05:33:25;4.40;94.50
14210;DHT22;7188;56.070;12.698;2023-10-19T05:35:52;4.40;1.00
14210;DHT22;7188;56.070;12.698;2023-10-19T05:38:18;4.40;1.00
14210;DHT22;7188;56.070;12.698;2023-10-19T05:40:45;4.40;1.00
14210;DHT22;7188;56.070;12.698;2023-10-19T05:43:11;4.40;1.00
14210;DHT22;7188;56.070;12.698;2023-10-19T05:45:38;4.40;1.00
14210;DHT22;7188;56.070;12.698;2023-10-19T05:48:04;4.30;1.00
14210;DHT22;7188;56.070;12.698;2023-10-19T05:50:35;4.30;1.00
14210;DHT22;7188;56.070;12.698;2023-10-19T05:53:02;4.30;49.60
14210;DHT22;7188;56.070;12.698;2023-10-19T05:55:28;4.30;1.00
14210;DHT22;7188;56.070;12.698;2023-10-19T05:57:54;4.30;1.00
14210;DHT22;7188;56.070;12.698;2023-10-19T06:00:20;4.20;1.00
14210;DHT22;7188;56.070;12.698;2023-10-19T06:02:48;4.30;1.00
14210;DHT22;7188;56.070;12.698;2023-10-19T06:05:16;4.20;39.20
14210;DHT22;7188;56.070;12.698;2023-10-19T06:07:46;4.20;91.80
14210;DHT22;7188;56.070;12.698;2023-10-19T06:10:20;4.20;99.90
14210;DHT22;7188;56.070;12.698;2023-10-19T06:12:49;4.20;99.90
14210;DHT22;7188;56.070;12.698;2023-10-19T06:15:17;4.20;99.90
14210;DHT22;7188;56.070;12.698;2023-10-19T06:17:43;4.20;99.90
14210;DHT22;7188;56.070;12.698;2023-10-19T06:20:11;4.20;99.90
14210;DHT22;7188;56.070;12.698;2023-10-19T06:22:57;4.30;99.90
14210;DHT22;7188;56.070;12.698;2023-10-19T06:25:26;4.30;99.90
14210;DHT22;7188;56.070;12.698;2023-10-19T06:27:52;4.30;99.90
14210;DHT22;7188;56.070;12.698;2023-10-19T06:30:19;4.30;99.90
14210;DHT22;7188;56.070;12.698;2023-10-19T06:32:58;4.30;99.90
14210;DHT22;7188;56.070;12.698;2023-10-19T06:35:28;4.40;99.90
14210;DHT22;7188;56.070;12.698;2023-10-19T06:37:55;4.40;99.90
14210;DHT22;7188;56.070;12.698;2023-10-19T06:40:21;4.40;99.90
14210;DHT22;7188;56.070;12.698;2023-10-19T06:42:48;4.40;92.90
14210;DHT22;7188;56.070;12.698;2023-10-19T06:45:17;4.40;62.70
14210;DHT22;7188;56.070;12.698;2023-10-19T06:47:46;4.50;6.00
14210;DHT22;7188;56.070;12.698;2023-10-19T06:50:14;4.50;1.00
14210;DHT22;7188;56.070;12.698;2023-10-19T06:52:41;4.50;1.00
14210;DHT22;7188;56.070;12.698;2023-10-19T06:55:09;4.60;1.00
14210;DHT22;7188;56.070;12.698;2023-10-19T06:57:52;4.60;99.90
14210;DHT22;7188;56.070;12.698;2023-10-19T07:00:22;4.70;1.00
14210;DHT22;7188;56.070;12.698;2023-10-19T07:02:53;4.70;1.00
14210;DHT22;7188;56.070;12.698;2023-10-19T07:05:21;4.70;1.00
14210;DHT22;7188;56.070;12.698;2023-10-19T07:07:48;4.70;99.90
14210;DHT22;7188;56.070;12.698;2023-10-19T07:10:15;4.80;99.90
14210;DHT22;7188;56.070;12.698;2023-10-19T07:12:43;4.80;99.90
14210;DHT22;7188;56.070;12.698;2023-10-19T07:15:10;4.80;1.00
14210;DHT22;7188;56.070;12.698;2023-10-19T07:17:45;4.90;1.00
14210;DHT22;7188;56.070;12.698;2023-10-19T07:20:11;4.90;1.00
14210;DHT22;7188;56.070;12.698;2023-10-19T07:22:57;4.90;1.00
14210;DHT22;7188;56.070;12.698;2023-10-19T07:25:28;5.00;99.90
14210;DHT22;7188;56.070;12.698;2023-10-19T07:27:55;5.10;99.90
14210;DHT22;7188;56.070;12.698;2023-10-19T07:30:21;5.10;99.90
14210;DHT22;7188;56.070;12.698;2023-10-19T07:32:50;5.20;99.90
14210;DHT22;7188;56.070;12.698;2023-10-19T07:35:19;5.20;1.00
14210;DHT22;7188;56.070;12.698;2023-10-19T07:37:54;5.30;1.00
14210;DHT22;7188;56.070;12.698;2023-10-19T07:40:21;5.30;1.00
14210;DHT22;7188;56.070;12.698;2023-10-19T07:42:46;5.40;99.90
14210;DHT22;7188;56.070;12.698;2023-10-19T07:45:14;5.40;99.90
14210;DHT22;7188;56.070;12.698;2023-10-19T07:47:41;5.40;99.90
14210;DHT22;7188;56.070;12.698;2023-10-19T07:50:11;5.50;67.50
14210;DHT22;7188;56.070;12.698;2023-10-19T07:52:47;5.50;1.00
14210;DHT22;7188;56.070;12.698;2023-10-19T07:55:15;5.60;1.00
14210;DHT22;7188;56.070;12.698;2023-10-19T07:57:41;5.60;1.00
14210;DHT22;7188;56.070;12.698;2023-10-19T08:00:08;5.70;1.00
14210;DHT22;7188;56.070;12.698;2023-10-19T08:02:35;5.70;99.90
14210;DHT22;7188;56.070;12.698;2023-10-19T08:05:02;5.80;99.90
14210;DHT22;7188;56.070;12.698;2023-10-19T08:07:28;5.80;99.90
14210;DHT22;7188;56.070;12.698;2023-10-19T08:09:54;5.90;99.90
14210;DHT22;7188;56.070;12.698;2023-10-19T08:12:21;5.90;43.10
14210;DHT22;7188;56.070;12.698;2023-10-19T08:14:48;5.90;1.00
14210;DHT22;7188;56.070;12.698;2023-10-19T08:17:14;6.00;1.00
14210;DHT22;7188;56.070;12.698;2023-10-19T08:19:40;6.10;1.00
14210;DHT22;7188;56.070;12.698;2023-10-19T08:22:06;6.10;1.00
14210;DHT22;7188;56.070;12.698;2023-10-19T08:24:32;6.10;1.00
14210;DHT22;7188;56.070;12.698;2023-10-19T08:27:01;6.10;99.90
14210;DHT22;7188;56.070;12.698;2023-10-19T08:29:26;6.10;99.90
14210;DHT22;7188;56.070;12.698;2023-10-19T08:31:52;6.10;99.90
14210;DHT22;7188;56.070;12.698;2023-10-19T08:34:18;6.10;99.90
14210;DHT22;7188;56.070;12.698;2023-10-19T08:36:45;6.20;99.90
14210;DHT22;7188;56.070;12.698;2023-10-19T08:39:12;6.20;92.90
14210;DHT22;7188;56.070;12.698;2023-10-19T08:41:39;6.20;1.00
14210;DHT22;7188;56.070;12.698;2023-10-19T08:44:07;6.30;1.00
14210;DHT22;7188;56.070;12.698;2023-10-19T08:46:45;6.20;1.00
14210;DHT22;7188;56.070;12.698;2023-10-19T08:49:14;6.20;1.00
14210;DHT22;7188;56.070;12.698;2023-10-19T08:51:43;6.30;1.00
14210;DHT22;7188;56.070;12.698;2023-10-19T08:54:13;6.30;1.00
14210;DHT22;7188;56.070;12.698;2023-10-19T08:56:41;6.30;1.00
14210;DHT22;7188;56.070;12.698;2023-10-19T08:59:10;6.30;99.90
14210;DHT22;7188;56.070;12.698;2023-10-19T09:01:41;6.30;99.90
14210;DHT22;7188;56.070;12.698;2023-10-19T09:04:13;6.30;99.90
14210;DHT22;7188;56.070;12.698;2023-10-19T09:06:39;6.40;99.90
14210;DHT22;7188;56.070;12.698;2023-10-19T09:09:14;6.30;99.90
14210;DHT22;7188;56.070;12.698;2023-10-19T09:11:47;6.40;99.90
14210;DHT22;7188;56.070;12.698;2023-10-19T09:14:17;6.40;99.90
14210;DHT22;7188;56.070;12.698;2023-10-19T09:16:57;6.40;99.90
14210;DHT22;7188;56.070;12.698;2023-10-19T09:19:42;6.50;76.90
14210;DHT22;7188;56.070;12.698;2023-10-19T09:22:09;6.50;1.00
14210;DHT22;7188;56.070;12.698;2023-10-19T09:24:47;6.50;1.00
14210;DHT22;7188;56.070;12.698;2023-10-19T09:27:13;6.50;1.00
14210;DHT22;7188;56.070;12.698;2023-10-19T09:29:39;6.50;1.00
14210;DHT22;7188;56.070;12.698;2023-10-19T09:32:07;6.50;1.00
14210;DHT22;7188;56.070;12.698;2023-10-19T09:34:34;6.50;1.00
14210;DHT22;7188;56.070;12.698;2023-10-19T09:37:00;6.50;1.00
14210;DHT22;7188;56.070;12.698;2023-10-19T09:39:30;6.60;1.00
14210;DHT22;7188;56.070;12.698;2023-10-19T09:42:09;6.70;1.00
14210;DHT22;7188;56.070;12.698;2023-10-19T09:44:42;6.80;1.00
14210;DHT22;7188;56.070;12.698;2023-10-19T09:47:22;6.70;1.00
14210;DHT22;7188;56.070;12.698;2023-10-19T09:49:49;6.70;1.00
14210;DHT22;7188;56.070;12.698;2023-10-19T09:52:16;6.70;1.00
14210;DHT22;7188;56.070;12.698;2023-10-19T09:57:17;6.70;1.00
14210;DHT22;7188;56.070;12.698;2023-10-19T09:59:46;6.70;1.00
14210;DHT22;7188;56.070;12.698;2023-10-19T10:02:16;6.80;99.90
14210;DHT22;7188;56.070;12.698;2023-10-19T10:04:44;6.80;99.90
14210;DHT22;7188;56.070;12.698;2023-10-19T10:07:11;6.80;99.90
14210;DHT22;7188;56.070;12.698;2023-10-19T10:09:39;6.90;99.90
14210;DHT22;7188;56.070;12.698;2023-10-19T10:12:23;6.80;99.90
14210;DHT22;7188;56.070;12.698;2023-10-19T10:15:02;6.80;99.90
14210;DHT22;7188;56.070;12.698;2023-10-19T10:17:34;6.80;99.90
14210;DHT22;7188;56.070;12.698;2023-10-19T10:23:20;6.90;99.90
14210;DHT22;7188;56.070;12.698;2023-10-19T10:25:52;6.80;99.90
14210;DHT22;7188;56.070;12.698;2023-10-19T10:28:19;6.90;99.90
14210;DHT22;7188;56.070;12.698;2023-10-19T10:31:21;6.90;99.90
14210;DHT22;7188;56.070;12.698;2023-10-19T10:36:15;7.00;26.30
14210;DHT22;7188;56.070;12.698;2023-10-19T10:38:42;7.00;1.00
14210;DHT22;7188;56.070;12.698;2023-10-19T10:41:08;7.10;1.00
14210;DHT22;7188;56.070;12.698;2023-10-19T10:46:19;7.00;1.00
14210;DHT22;7188;56.070;12.698;2023-10-19T10:48:47;7.00;1.00
14210;DHT22;7188;56.070;12.698;2023-10-19T10:51:18;7.00;1.00
14210;DHT22;7188;56.070;12.698;2023-10-19T10:53:47;7.00;1.00
14210;DHT22;7188;56.070;12.698;2023-10-19T10:56:12;7.00;1.00
14210;DHT22;7188;56.070;12.698;2023-10-19T10:58:38;7.00;1.00
14210;DHT22;7188;56.070;12.698;2023-10-19T11:01:05;6.90;1.00
14210;DHT22;7188;56.070;12.698;2023-10-19T11:03:30;7.00;1.00
14210;DHT22;7188;56.070;12.698;2023-10-19T11:06:03;7.10;1.00
14210;DHT22;7188;56.070;12.698;2023-10-19T11:08:29;7.10;1.00
14210;DHT22;7188;56.070;12.698;2023-10-19T11:11:02;7.00;1.00
14210;DHT22;7188;56.070;12.698;2023-10-19T11:13:30;7.00;1.00
14210;DHT22;7188;56.070;12.698;2023-10-19T11:15:58;7.10;1.00
14210;DHT22;7188;56.070;12.698;2023-10-19T11:18:40;7.10;1.00
14210;DHT22;7188;56.070;12.698;2023-10-19T11:21:08;7.10;1.00
14210;DHT22;7188;56.070;12.698;2023-10-19T11:23:45;7.10;1.00
14210;DHT22;7188;56.070;12.698;2023-10-19T11:26:13;7.10;1.00
14210;DHT22;7188;56.070;12.698;2023-10-19T11:28:40;7.10;1.00
14210;DHT22;7188;56.070;12.698;2023-10-19T11:33:42;6.90;1.00
14210;DHT22;7188;56.070;12.698;2023-10-19T11:36:12;6.90;1.00
14210;DHT22;7188;56.070;12.698;2023-10-19T11:38:45;6.90;1.00
14210;DHT22;7188;56.070;12.698;2023-10-19T11:41:11;6.90;1.00
14210;DHT22;7188;56.070;12.698;2023-10-19T11:43:42;7.00;1.00
14210;DHT22;7188;56.070;12.698;2023-10-19T11:46:08;7.00;1.00
14210;DHT22;7188;56.070;12.698;2023-10-19T11:48:35;7.10;1.00
14210;DHT22;7188;56.070;12.698;2023-10-19T11:51:04;7.10;1.00
14210;DHT22;7188;56.070;12.698;2023-10-19T11:53:31;7.20;1.00
14210;DHT22;7188;56.070;12.698;2023-10-19T11:56:02;7.20;99.90
14210;DHT22;7188;56.070;12.698;2023-10-19T11:58:33;7.00;99.90
14210;DHT22;7188;56.070;12.698;2023-10-19T12:01:00;7.00;99.90
14210;DHT22;7188;56.070;12.698;2023-10-19T12:03:26;7.10;99.90
14210;DHT22;7188;56.070;12.698;2023-10-19T12:05:52;7.10;99.90
14210;DHT22;7188;56.070;12.698;2023-10-19T12:08:37;7.20;99.90
14210;DHT22;7188;56.070;12.698;2023-10-19T12:11:06;7.20;99.90
14210;DHT22;7188;56.070;12.698;2023-10-19T12:13:41;7.20;99.90
14210;DHT22;7188;56.070;12.698;2023-10-19T12:16:11;7.10;99.90
14210;DHT22;7188;56.070;12.698;2023-10-19T12:18:54;7.10;99.90
14210;DHT22;7188;56.070;12.698;2023-10-19T12:21:19;7.20;99.90
14210;DHT22;7188;56.070;12.698;2023-10-19T12:23:53;7.20;99.90
14210;DHT22;7188;56.070;12.698;2023-10-19T12:26:20;7.20;99.90
14210;DHT22;7188;56.070;12.698;2023-10-19T12:28:46;7.20;99.90
14210;DHT22;7188;56.070;12.698;2023-10-19T12:31:13;7.10;99.90
14210;DHT22;7188;56.070;12.698;2023-10-19T12:33:43;7.20;99.90
14210;DHT22;7188;56.070;12.698;2023-10-19T12:36:10;7.20;99.90
14210;DHT22;7188;56.070;12.698;2023-10-19T12:38:54;7.20;99.90
14210;DHT22;7188;56.070;12.698;2023-10-19T12:41:20;7.20;99.90
14210;DHT22;7188;56.070;12.698;2023-10-19T12:43:46;7.30;99.90
14210;DHT22;7188;56.070;12.698;2023-10-19T12:46:13;7.20;99.90
14210;DHT22;7188;56.070;12.698;2023-10-19T12:48:43;7.20;99.90
14210;DHT22;7188;56.070;12.698;2023-10-19T12:51:09;7.20;99.90
14210;DHT22;7188;56.070;12.698;2023-10-19T12:53:37;7.30;99.90
14210;DHT22;7188;56.070;12.698;2023-10-19T12:56:04;7.30;99.90
14210;DHT22;7188;56.070;12.698;2023-10-19T12:58:31;7.30;99.90
14210;DHT22;7188;56.070;12.698;2023-10-19T13:00:57;7.20;99.90
14210;DHT22;7188;56.070;12.698;2023-10-19T13:03:24;7.20;99.90
14210;DHT22;7188;56.070;12.698;2023-10-19T13:05:53;7.20;99.90
14210;DHT22;7188;56.070;12.698;2023-10-19T13:08:18;7.10;99.90
14210;DHT22;7188;56.070;12.698;2023-10-19T13:10:46;7.10;99.90
14210;DHT22;7188;56.070;12.698;2023-10-19T13:13:13;7.20;99.90
14210;DHT22;7188;56.070;12.698;2023-10-19T13:15:41;7.10;99.90
14210;DHT22;7188;56.070;12.698;2023-10-19T13:18:08;7.10;99.90
14210;DHT22;7188;56.070;12.698;2023-10-19T13:20:39;7.10;96.00
14210;DHT22;7188;56.070;12.698;2023-10-19T13:23:09;7.10;75.70
14210;DHT22;7188;56.070;12.698;2023-10-19T13:25:41;7.00;54.50
14210;DHT22;7188;56.070;12.698;2023-10-19T13:28:11;7.00;44.80
14210;DHT22;7188;56.070;12.698;2023-10-19T13:30:45;7.00;60.80
14210;DHT22;7188;56.070;12.698;2023-10-19T13:33:12;7.00;55.10
14210;DHT22;7188;56.070;12.698;2023-10-19T13:35:40;6.90;71.40
14210;DHT22;7188;56.070;12.698;2023-10-19T13:38:07;7.00;69.90
14210;DHT22;7188;56.070;12.698;2023-10-19T13:40:39;6.90;52.80
14210;DHT22;7188;56.070;12.698;2023-10-19T13:43:06;7.00;54.30
14210;DHT22;7188;56.070;12.698;2023-10-19T13:45:36;7.00;54.90
14210;DHT22;7188;56.070;12.698;2023-10-19T13:48:02;7.00;34.90
14210;DHT22;7188;56.070;12.698;2023-10-19T13:50:32;7.00;44.20
14210;DHT22;7188;56.070;12.698;2023-10-19T13:52:58;7.00;36.70
14210;DHT22;7188;56.070;12.698;2023-10-19T13:55:28;6.90;1.00
14210;DHT22;7188;56.070;12.698;2023-10-19T13:57:55;6.90;1.00
14210;DHT22;7188;56.070;12.698;2023-10-19T14:00:24;6.90;1.00
14210;DHT22;7188;56.070;12.698;2023-10-19T14:02:53;6.90;1.00
14210;DHT22;7188;56.070;12.698;2023-10-19T14:05:19;6.90;1.00
14210;DHT22;7188;56.070;12.698;2023-10-19T14:07:46;6.90;1.00
14210;DHT22;7188;56.070;12.698;2023-10-19T14:10:13;6.80;1.00
14210;DHT22;7188;56.070;12.698;2023-10-19T14:12:39;6.80;1.00
14210;DHT22;7188;56.070;12.698;2023-10-19T14:15:18;6.80;1.00
14210;DHT22;7188;56.070;12.698;2023-10-19T14:17:45;6.70;1.00
14210;DHT22;7188;56.070;12.698;2023-10-19T14:20:12;6.70;1.00
14210;DHT22;7188;56.070;12.698;2023-10-19T14:22:58;6.60;1.00
14210;DHT22;7188;56.070;12.698;2023-10-19T14:25:36;6.60;1.00
14210;DHT22;7188;56.070;12.698;2023-10-19T14:28:03;6.60;1.00
14210;DHT22;7188;56.070;12.698;2023-10-19T14:30:32;6.60;1.00
14210;DHT22;7188;56.070;12.698;2023-10-19T14:32:58;6.60;1.00
14210;DHT22;7188;56.070;12.698;2023-10-19T14:35:36;6.60;1.00
14210;DHT22;7188;56.070;12.698;2023-10-19T14:38:04;6.50;1.00
14210;DHT22;7188;56.070;12.698;2023-10-19T14:40:31;6.50;1.00
14210;DHT22;7188;56.070;12.698;2023-10-19T14:42:57;6.50;1.00
14210;DHT22;7188;56.070;12.698;2023-10-19T14:45:25;6.50;1.00
14210;DHT22;7188;56.070;12.698;2023-10-19T14:47:52;6.50;1.00
14210;DHT22;7188;56.070;12.698;2023-10-19T14:50:18;6.40;1.00
14210;DHT22;7188;56.070;12.698;2023-10-19T14:52:47;6.40;1.00
14210;DHT22;7188;56.070;12.698;2023-10-19T14:55:14;6.40;1.00
14210;DHT22;7188;56.070;12.698;2023-10-19T14:57:42;6.30;1.00
14210;DHT22;7188;56.070;12.698;2023-10-19T15:00:10;6.40;1.00
14210;DHT22;7188;56.070;12.698;2023-10-19T15:02:56;6.40;1.00
14210;DHT22;7188;56.070;12.698;2023-10-19T15:05:23;6.40;1.00
14210;DHT22;7188;56.070;12.698;2023-10-19T15:07:51;6.40;1.00
14210;DHT22;7188;56.070;12.698;2023-10-19T15:10:22;6.30;1.00
14210;DHT22;7188;56.070;12.698;2023-10-19T15:12:48;6.30;1.00
14210;DHT22;7188;56.070;12.698;2023-10-19T15:15:14;6.30;1.00
14210;DHT22;7188;56.070;12.698;2023-10-19T15:17:41;6.30;1.00
14210;DHT22;7188;56.070;12.698;2023-10-19T15:20:10;6.30;1.00
14210;DHT22;7188;56.070;12.698;2023-10-19T15:22:37;6.20;1.00
14210;DHT22;7188;56.070;12.698;2023-10-19T15:25:04;6.20;1.00
14210;DHT22;7188;56.070;12.698;2023-10-19T15:27:30;6.20;1.00
14210;DHT22;7188;56.070;12.698;2023-10-19T15:29:57;6.10;1.00
14210;DHT22;7188;56.070;12.698;2023-10-19T15:32:23;6.10;1.00
14210;DHT22;7188;56.070;12.698;2023-10-19T15:34:50;6.10;1.00
14210;DHT22;7188;56.070;12.698;2023-10-19T15:37:16;6.10;1.00
14210;DHT22;7188;56.070;12.698;2023-10-19T15:39:42;6.10;1.00
14210;DHT22;7188;56.070;12.698;2023-10-19T15:42:09;6.10;1.00
14210;DHT22;7188;56.070;12.698;2023-10-19T15:44:39;6.10;1.00
14210;DHT22;7188;56.070;12.698;2023-10-19T15:47:21;6.10;1.00
14210;DHT22;7188;56.070;12.698;2023-10-19T15:49:54;6.00;1.00
14210;DHT22;7188;56.070;12.698;2023-10-19T15:52:23;6.00;1.00
14210;DHT22;7188;56.070;12.698;2023-10-19T15:54:50;6.00;1.00
14210;DHT22;7188;56.070;12.698;2023-10-19T15:57:16;6.00;1.00
14210;DHT22;7188;56.070;12.698;2023-10-19T15:59:43;6.00;1.00
14210;DHT22;7188;56.070;12.698;2023-10-19T16:02:12;5.90;1.00
14210;DHT22;7188;56.070;12.698;2023-10-19T16:04:39;5.90;1.00
14210;DHT22;7188;56.070;12.698;2023-10-19T16:07:06;5.90;1.00
14210;DHT22;7188;56.070;12.698;2023-10-19T16:09:32;5.90;1.00
14210;DHT22;7188;56.070;12.698;2023-10-19T16:11:57;5.80;1.00
14210;DHT22;7188;56.070;12.698;2023-10-19T16:14:23;5.80;1.00
14210;DHT22;7188;56.070;12.698;2023-10-19T16:16:49;5.80;1.00
14210;DHT22;7188;56.070;12.698;2023-10-19T16:19:15;5.80;12.60
14210;DHT22;7188;56.070;12.698;2023-10-19T16:21:42;5.80;38.30
14210;DHT22;7188;56.070;12.698;2023-10-19T16:24:08;5.90;66.30
14210;DHT22;7188;56.070;12.698;2023-10-19T16:26:35;5.80;98.20